createdAt,value
2018-04-29T00:01:29.783Z,2.77
2018-04-29T00:07:34.211Z,1.97
2018-04-29T00:13:38.695Z,2.30
2018-04-29T00:19:43.099Z,2.60
2018-04-29T00:25:47.546Z,2.17
2018-04-29T00:31:52.838Z,3.00
2018-04-29T00:37:57.219Z,2.87
2018-04-29T00:44:01.589Z,3.23
2018-04-29T00:50:06.782Z,3.73
2018-04-29T00:56:11.178Z,2.60
2018-04-29T01:02:15.569Z,3.57
2018-04-29T01:08:20.049Z,3.40
2018-04-29T01:14:24.508Z,2.93
2018-04-29T01:20:28.864Z,2.73
2018-04-29T01:26:33.261Z,2.80
2018-04-29T01:32:37.624Z,2.40
2018-04-29T01:38:42.070Z,2.40
2018-04-29T01:44:47.185Z,2.23
2018-04-29T01:50:51.865Z,2.30
2018-04-29T01:56:56.213Z,2.30
2018-04-29T02:03:00.556Z,2.70
2018-04-29T02:09:04.941Z,2.37
2018-04-29T02:15:09.304Z,2.60
2018-04-29T02:21:13.731Z,2.43
2018-04-29T02:27:18.858Z,2.90
2018-04-29T02:33:23.429Z,3.10
2018-04-29T02:39:27.803Z,2.73
2018-04-29T02:45:32.154Z,3.03
2018-04-29T02:51:37.307Z,3.30
2018-04-29T02:57:41.664Z,3.13
2018-04-29T03:03:46.028Z,2.60
2018-04-29T03:09:50.393Z,2.57
2018-04-29T03:15:54.796Z,3.23
2018-04-29T03:21:59.218Z,3.20
2018-04-29T03:28:04.336Z,2.67
2018-04-29T03:34:08.685Z,2.70
2018-04-29T03:40:13.818Z,2.70
2018-04-29T03:46:18.270Z,3.30
2018-04-29T03:52:22.703Z,3.07
2018-04-29T03:58:45.053Z,2.73
2018-04-29T04:04:49.399Z,2.70
2018-04-29T04:10:54.832Z,2.87
2018-04-29T04:16:59.213Z,3.23
2018-04-29T04:23:03.610Z,2.87
2018-04-29T04:29:07.943Z,2.77
2018-04-29T04:35:12.295Z,2.93
2018-04-29T04:41:17.409Z,3.07
2018-04-29T04:47:21.867Z,2.20
2018-04-29T04:53:27.004Z,3.13
2018-04-29T04:59:31.353Z,2.90
2018-04-29T05:05:35.726Z,4.03
2018-04-29T05:11:40.076Z,2.57
2018-04-29T05:17:44.446Z,3.73
2018-04-29T05:23:49.564Z,2.70
2018-04-29T05:29:53.951Z,3.60
2018-04-29T05:35:58.405Z,3.03
2018-04-29T05:42:03.927Z,2.90
2018-04-29T05:48:08.278Z,3.27
2018-04-29T05:54:12.638Z,6.10
2018-04-29T06:00:17.776Z,2.93
2018-04-29T06:06:22.201Z,2.40
2018-04-29T06:12:28.050Z,3.70
2018-04-29T06:18:33.257Z,3.23
2018-04-29T06:24:37.607Z,3.10
2018-04-29T06:30:41.973Z,3.00
2018-04-29T06:36:47.182Z,2.80
2018-04-29T06:42:51.568Z,4.63
2018-04-29T06:48:55.972Z,3.30
2018-04-29T06:55:00.350Z,20.17
2018-04-29T07:01:04.789Z,20.93
2018-04-29T07:07:09.156Z,15.70
2018-04-29T07:13:13.535Z,4.03
2018-04-29T07:19:17.883Z,3.57
2018-04-29T07:25:23.004Z,2.70
2018-04-29T07:31:27.390Z,3.13
2018-04-29T07:37:31.751Z,2.50
2018-04-29T07:43:36.213Z,2.87
2018-04-29T07:49:41.332Z,3.20
2018-04-29T07:55:45.678Z,3.40
2018-04-29T08:01:50.808Z,2.40
2018-04-29T08:07:55.195Z,2.90
2018-04-29T08:14:00.340Z,2.80
2018-04-29T08:20:05.455Z,2.70
2018-04-29T08:26:09.837Z,2.73
2018-04-29T08:32:14.199Z,2.90
2018-04-29T08:38:18.562Z,2.23
2018-04-29T08:44:23.077Z,2.00
2018-04-29T08:50:27.432Z,1.93
2018-04-29T08:56:31.908Z,2.30
2018-04-29T09:02:36.322Z,2.20
2018-04-29T09:08:40.712Z,2.20
2018-04-29T09:14:45.056Z,2.97
2018-04-29T09:20:49.596Z,2.60
2018-04-29T09:26:54.082Z,3.37
2018-04-29T09:32:58.589Z,2.60
2018-04-29T09:39:02.983Z,2.90
2018-04-29T09:45:07.338Z,2.80
2018-04-29T09:51:11.690Z,2.23
2018-04-29T09:57:16.050Z,2.63
2018-04-29T10:03:20.445Z,3.23
2018-04-29T10:09:24.897Z,2.60
2018-04-29T10:15:29.241Z,2.50
2018-04-29T10:21:33.656Z,2.17
2018-04-29T10:27:38.058Z,2.53
2018-04-29T10:33:42.433Z,1.97
2018-04-29T10:39:46.797Z,2.40
2018-04-29T10:45:51.255Z,2.00
2018-04-29T10:51:55.760Z,2.20
2018-04-29T10:58:00.142Z,2.13
2018-04-29T11:04:04.514Z,2.40
2018-04-29T11:10:08.980Z,3.10
2018-04-29T11:16:13.344Z,2.60
2018-04-29T11:22:17.716Z,2.23
2018-04-29T11:28:23.247Z,2.93
2018-04-29T11:34:27.608Z,2.33
2018-04-29T11:40:31.991Z,2.73
2018-04-29T11:46:36.334Z,2.70
2018-04-29T11:52:41.461Z,2.50
2018-04-29T11:58:45.919Z,2.90
2018-04-29T12:04:50.875Z,2.57
2018-04-29T12:10:55.514Z,2.50
2018-04-29T12:17:00.083Z,2.90
2018-04-29T12:23:04.464Z,2.67
2018-04-29T12:29:08.857Z,3.20
2018-04-29T12:35:13.261Z,2.43
2018-04-29T12:41:18.403Z,2.50
2018-04-29T12:47:23.483Z,2.30
2018-04-29T12:53:28.047Z,2.47
2018-04-29T12:59:32.435Z,2.30
2018-04-29T13:05:36.919Z,2.60
2018-04-29T13:11:41.388Z,2.90
2018-04-29T13:17:45.963Z,2.57
2018-04-29T13:23:50.571Z,2.77
2018-04-29T13:29:55.003Z,3.10
2018-04-29T13:35:59.366Z,2.37
2018-04-29T13:42:04.598Z,2.80
2018-04-29T13:48:09.190Z,2.40
2018-04-29T13:54:15.170Z,2.50
2018-04-29T14:00:19.582Z,2.80
2018-04-29T14:06:24.296Z,2.07
2018-04-29T14:12:29.438Z,2.27
2018-04-29T14:18:33.780Z,2.43
2018-04-29T14:24:38.138Z,2.53
2018-04-29T14:30:42.545Z,2.40
2018-04-29T14:36:47.011Z,2.63
2018-04-29T14:42:51.714Z,2.33
2018-04-29T14:48:56.078Z,2.27
2018-04-29T14:55:00.465Z,2.43
2018-04-29T15:01:04.824Z,3.00
2018-04-29T15:07:09.220Z,2.13
2018-04-29T15:13:13.677Z,2.40
2018-04-29T15:19:18.072Z,2.57
2018-04-29T15:25:22.445Z,3.00
2018-04-29T15:31:26.906Z,2.37
2018-04-29T15:37:31.285Z,2.57
2018-04-29T15:43:35.770Z,2.67
2018-04-29T15:49:40.188Z,3.30
2018-04-29T15:55:46.044Z,3.07
2018-04-29T16:01:50.671Z,2.80
2018-04-29T16:07:55.032Z,2.10
2018-04-29T16:13:59.402Z,1.93
2018-04-29T16:20:03.746Z,3.13
2018-04-29T16:26:08.133Z,3.40
2018-04-29T16:32:12.597Z,3.30
2018-04-29T16:38:16.979Z,2.70
2018-04-29T16:44:23.174Z,2.87
2018-04-29T16:50:28.308Z,2.40
2018-04-29T16:56:32.700Z,4.60
2018-04-29T17:02:37.225Z,2.97
2018-04-29T17:08:42.356Z,2.40
2018-04-29T17:14:46.730Z,3.03
2018-04-29T17:20:51.307Z,2.50
2018-04-29T17:26:55.689Z,3.27
2018-04-29T17:33:00.051Z,3.00
2018-04-29T17:39:04.413Z,3.63
2018-04-29T17:45:08.880Z,2.77
2018-04-29T17:51:13.242Z,2.67
2018-04-29T17:57:18.446Z,2.77
2018-04-29T18:03:22.873Z,3.00
2018-04-29T18:09:27.302Z,3.80
2018-04-29T18:15:31.682Z,2.80
2018-04-29T18:21:36.050Z,4.03
2018-04-29T18:27:40.539Z,3.50
2018-04-29T18:33:44.778Z,3.80
2018-04-29T18:39:51.131Z,3.23
2018-04-29T18:45:55.523Z,3.80
2018-04-29T18:51:59.880Z,3.03
2018-04-29T18:58:04.319Z,2.87
2018-04-29T19:04:08.675Z,3.20
2018-04-29T19:10:13.075Z,2.90
2018-04-29T19:16:18.241Z,3.47
2018-04-29T19:22:22.715Z,2.90
2018-04-29T19:28:27.069Z,3.63
2018-04-29T19:34:31.429Z,3.10
2018-04-29T19:40:35.788Z,2.60
2018-04-29T19:46:40.159Z,3.30
2018-04-29T19:52:45.284Z,3.93
2018-04-29T19:58:49.659Z,3.33
2018-04-29T20:04:54.022Z,3.20
2018-04-29T20:10:58.583Z,3.90
2018-04-29T20:17:03.206Z,3.60
2018-04-29T20:23:07.591Z,3.60
2018-04-29T20:29:12.017Z,3.57
2018-04-29T20:35:16.391Z,3.43
2018-04-29T20:41:20.822Z,4.07
2018-04-29T20:47:25.269Z,3.87
2018-04-29T20:53:29.659Z,3.80
2018-04-29T20:59:34.052Z,3.80
2018-04-29T21:05:38.478Z,4.20
2018-04-29T21:11:42.839Z,3.90
2018-04-29T21:17:47.998Z,4.27
2018-04-29T21:23:52.842Z,3.73
2018-04-29T21:29:57.199Z,3.67
2018-04-29T21:36:01.594Z,4.13
2018-04-29T21:42:05.991Z,3.90
2018-04-29T21:48:10.389Z,4.17
2018-04-29T21:54:14.807Z,4.30
2018-04-29T22:00:19.233Z,4.50
2018-04-29T22:06:23.692Z,4.33
2018-04-29T22:12:28.053Z,3.73
2018-04-29T22:18:32.543Z,4.60
2018-04-29T22:24:36.992Z,4.83
2018-04-29T22:30:41.364Z,5.23
2018-04-29T22:42:56.273Z,4.93
2018-04-29T22:49:00.648Z,5.80
2018-04-29T22:55:05.031Z,5.30
2018-04-29T23:01:09.398Z,4.90
2018-04-29T23:07:13.771Z,5.90
2018-04-29T23:13:18.242Z,5.83
2018-04-29T23:19:22.652Z,6.17
2018-04-29T23:25:27.029Z,6.90
2018-04-29T23:31:31.386Z,5.77
2018-04-29T23:37:35.857Z,5.37
2018-04-29T23:43:40.216Z,5.73
2018-04-29T23:49:44.581Z,6.70
2018-04-29T23:55:49.035Z,6.13
